sensor_id;sensor_type;location;lat;lon;timestamp;P1;durP1;ratioP1;P2;durP2;ratioP2
84082;SDS011;74174;52.224;6.878;2024-03-17T00:01:42;9.90;;;4.18;;
84082;SDS011;74174;52.224;6.878;2024-03-17T00:04:07;10.70;;;3.75;;
84082;SDS011;74174;52.224;6.878;2024-03-17T00:06:32;7.72;;;3.60;;
84082;SDS011;74174;52.224;6.878;2024-03-17T00:08:58;10.85;;;3.60;;
84082;SDS011;74174;52.224;6.878;2024-03-17T00:11:24;10.90;;;3.60;;
84082;SDS011;74174;52.224;6.878;2024-03-17T00:13:51;11.68;;;3.65;;
84082;SDS011;74174;52.224;6.878;2024-03-17T00:16:17;15.07;;;4.07;;
84082;SDS011;74174;52.224;6.878;2024-03-17T00:18:43;14.05;;;4.18;;
84082;SDS011;74174;52.224;6.878;2024-03-17T00:21:10;13.02;;;4.47;;
84082;SDS011;74174;52.224;6.878;2024-03-17T00:23:36;9.98;;;4.38;;
84082;SDS011;74174;52.224;6.878;2024-03-17T00:26:02;12.77;;;4.28;;
84082;SDS011;74174;52.224;6.878;2024-03-17T00:28:27;9.38;;;4.18;;
84082;SDS011;74174;52.224;6.878;2024-03-17T00:30:53;9.52;;;4.00;;
84082;SDS011;74174;52.224;6.878;2024-03-17T00:33:18;14.07;;;5.13;;
84082;SDS011;74174;52.224;6.878;2024-03-17T00:35:44;7.70;;;3.47;;
84082;SDS011;74174;52.224;6.878;2024-03-17T00:38:09;9.90;;;4.70;;
84082;SDS011;74174;52.224;6.878;2024-03-17T00:40:38;11.75;;;3.60;;
84082;SDS011;74174;52.224;6.878;2024-03-17T00:43:06;14.52;;;3.97;;
84082;SDS011;74174;52.224;6.878;2024-03-17T00:45:31;13.98;;;3.97;;
84082;SDS011;74174;52.224;6.878;2024-03-17T00:47:57;12.88;;;3.60;;
84082;SDS011;74174;52.224;6.878;2024-03-17T00:50:22;11.40;;;3.70;;
84082;SDS011;74174;52.224;6.878;2024-03-17T00:52:47;7.90;;;4.43;;
84082;SDS011;74174;52.224;6.878;2024-03-17T00:55:13;9.90;;;3.88;;
84082;SDS011;74174;52.224;6.878;2024-03-17T00:57:39;14.18;;;3.83;;
84082;SDS011;74174;52.224;6.878;2024-03-17T01:00:06;12.02;;;4.18;;
84082;SDS011;74174;52.224;6.878;2024-03-17T01:02:31;10.40;;;3.58;;
84082;SDS011;74174;52.224;6.878;2024-03-17T01:04:57;10.52;;;3.78;;
84082;SDS011;74174;52.224;6.878;2024-03-17T01:07:22;8.77;;;3.10;;
84082;SDS011;74174;52.224;6.878;2024-03-17T01:09:48;14.20;;;4.53;;
84082;SDS011;74174;52.224;6.878;2024-03-17T01:12:14;10.35;;;3.90;;
84082;SDS011;74174;52.224;6.878;2024-03-17T01:14:39;9.88;;;3.92;;
84082;SDS011;74174;52.224;6.878;2024-03-17T01:17:04;8.57;;;4.72;;
84082;SDS011;74174;52.224;6.878;2024-03-17T01:19:30;11.23;;;4.80;;
84082;SDS011;74174;52.224;6.878;2024-03-17T01:21:56;12.00;;;4.90;;
84082;SDS011;74174;52.224;6.878;2024-03-17T01:24:23;15.35;;;4.63;;
84082;SDS011;74174;52.224;6.878;2024-03-17T01:26:49;14.25;;;5.53;;
84082;SDS011;74174;52.224;6.878;2024-03-17T01:29:15;12.55;;;4.88;;
84082;SDS011;74174;52.224;6.878;2024-03-17T01:31:40;13.30;;;4.93;;
84082;SDS011;74174;52.224;6.878;2024-03-17T01:34:06;13.40;;;4.90;;
84082;SDS011;74174;52.224;6.878;2024-03-17T01:36:31;14.15;;;4.68;;
84082;SDS011;74174;52.224;6.878;2024-03-17T01:38:57;19.50;;;5.45;;
84082;SDS011;74174;52.224;6.878;2024-03-17T01:41:22;12.30;;;5.13;;
84082;SDS011;74174;52.224;6.878;2024-03-17T01:43:48;12.52;;;5.32;;
84082;SDS011;74174;52.224;6.878;2024-03-17T01:46:14;12.30;;;5.07;;
84082;SDS011;74174;52.224;6.878;2024-03-17T01:48:42;12.88;;;5.72;;
84082;SDS011;74174;52.224;6.878;2024-03-17T01:51:08;10.38;;;4.78;;
84082;SDS011;74174;52.224;6.878;2024-03-17T01:53:36;13.50;;;4.32;;
84082;SDS011;74174;52.224;6.878;2024-03-17T01:56:02;11.85;;;4.25;;
84082;SDS011;74174;52.224;6.878;2024-03-17T01:58:30;14.00;;;5.65;;
84082;SDS011;74174;52.224;6.878;2024-03-17T02:00:55;11.75;;;4.95;;
84082;SDS011;74174;52.224;6.878;2024-03-17T02:03:21;14.32;;;4.82;;
84082;SDS011;74174;52.224;6.878;2024-03-17T02:05:47;13.27;;;4.95;;
84082;SDS011;74174;52.224;6.878;2024-03-17T02:08:12;10.10;;;5.07;;
84082;SDS011;74174;52.224;6.878;2024-03-17T02:10:38;9.32;;;4.53;;
84082;SDS011;74174;52.224;6.878;2024-03-17T02:13:04;8.50;;;4.75;;
84082;SDS011;74174;52.224;6.878;2024-03-17T02:15:30;13.73;;;5.35;;
84082;SDS011;74174;52.224;6.878;2024-03-17T02:17:56;15.20;;;4.05;;
84082;SDS011;74174;52.224;6.878;2024-03-17T02:20:22;11.68;;;4.55;;
84082;SDS011;74174;52.224;6.878;2024-03-17T02:23:10;11.90;;;4.35;;
84082;SDS011;74174;52.224;6.878;2024-03-17T02:25:37;10.85;;;4.35;;
84082;SDS011;74174;52.224;6.878;2024-03-17T02:28:02;9.95;;;3.72;;
84082;SDS011;74174;52.224;6.878;2024-03-17T02:30:28;14.68;;;3.65;;
84082;SDS011;74174;52.224;6.878;2024-03-17T02:32:54;10.68;;;2.50;;
84082;SDS011;74174;52.224;6.878;2024-03-17T02:35:26;11.90;;;3.33;;
84082;SDS011;74174;52.224;6.878;2024-03-17T02:37:51;7.53;;;1.45;;
84082;SDS011;74174;52.224;6.878;2024-03-17T02:40:18;4.15;;;2.15;;
84082;SDS011;74174;52.224;6.878;2024-03-17T02:42:44;8.70;;;2.05;;
84082;SDS011;74174;52.224;6.878;2024-03-17T02:45:10;9.65;;;2.03;;
84082;SDS011;74174;52.224;6.878;2024-03-17T02:47:37;7.95;;;2.78;;
84082;SDS011;74174;52.224;6.878;2024-03-17T02:50:04;8.90;;;1.70;;
84082;SDS011;74174;52.224;6.878;2024-03-17T02:52:30;11.77;;;2.47;;
84082;SDS011;74174;52.224;6.878;2024-03-17T02:54:55;7.07;;;1.67;;
84082;SDS011;74174;52.224;6.878;2024-03-17T02:57:22;9.77;;;1.95;;
84082;SDS011;74174;52.224;6.878;2024-03-17T02:59:50;9.88;;;3.00;;
84082;SDS011;74174;52.224;6.878;2024-03-17T03:02:16;5.90;;;1.70;;
84082;SDS011;74174;52.224;6.878;2024-03-17T03:04:42;6.40;;;1.38;;
84082;SDS011;74174;52.224;6.878;2024-03-17T03:07:07;5.32;;;2.03;;
84082;SDS011;74174;52.224;6.878;2024-03-17T03:09:33;7.60;;;1.13;;
84082;SDS011;74174;52.224;6.878;2024-03-17T03:11:59;4.53;;;1.38;;
84082;SDS011;74174;52.224;6.878;2024-03-17T03:14:26;11.98;;;2.60;;
84082;SDS011;74174;52.224;6.878;2024-03-17T03:16:52;11.75;;;2.53;;
84082;SDS011;74174;52.224;6.878;2024-03-17T03:19:18;10.40;;;2.53;;
84082;SDS011;74174;52.224;6.878;2024-03-17T03:21:44;7.40;;;2.22;;
84082;SDS011;74174;52.224;6.878;2024-03-17T03:24:11;7.25;;;2.40;;
84082;SDS011;74174;52.224;6.878;2024-03-17T03:26:37;9.18;;;2.42;;
84082;SDS011;74174;52.224;6.878;2024-03-17T03:29:03;6.95;;;2.40;;
84082;SDS011;74174;52.224;6.878;2024-03-17T03:31:30;7.78;;;1.73;;
84082;SDS011;74174;52.224;6.878;2024-03-17T03:33:59;9.90;;;2.28;;
84082;SDS011;74174;52.224;6.878;2024-03-17T03:36:28;10.90;;;2.42;;
84082;SDS011;74174;52.224;6.878;2024-03-17T03:38:58;8.55;;;2.17;;
84082;SDS011;74174;52.224;6.878;2024-03-17T03:41:23;8.73;;;2.50;;
84082;SDS011;74174;52.224;6.878;2024-03-17T03:43:49;8.73;;;2.60;;
84082;SDS011;74174;52.224;6.878;2024-03-17T03:46:15;8.30;;;2.20;;
84082;SDS011;74174;52.224;6.878;2024-03-17T03:48:41;8.48;;;2.67;;
84082;SDS011;74174;52.224;6.878;2024-03-17T03:51:07;6.97;;;1.85;;
84082;SDS011;74174;52.224;6.878;2024-03-17T03:53:34;8.18;;;2.42;;
84082;SDS011;74174;52.224;6.878;2024-03-17T03:56:02;8.27;;;1.67;;
84082;SDS011;74174;52.224;6.878;2024-03-17T03:58:34;6.07;;;1.90;;
84082;SDS011;74174;52.224;6.878;2024-03-17T04:01:09;7.45;;;1.85;;
84082;SDS011;74174;52.224;6.878;2024-03-17T04:03:46;4.55;;;1.88;;
84082;SDS011;74174;52.224;6.878;2024-03-17T04:06:11;10.63;;;2.25;;
84082;SDS011;74174;52.224;6.878;2024-03-17T04:08:40;4.97;;;1.48;;
84082;SDS011;74174;52.224;6.878;2024-03-17T04:11:08;6.07;;;1.58;;
84082;SDS011;74174;52.224;6.878;2024-03-17T04:13:36;8.30;;;1.63;;
84082;SDS011;74174;52.224;6.878;2024-03-17T04:16:05;5.82;;;1.63;;
84082;SDS011;74174;52.224;6.878;2024-03-17T04:18:31;8.38;;;2.13;;
84082;SDS011;74174;52.224;6.878;2024-03-17T04:21:01;7.70;;;2.05;;
84082;SDS011;74174;52.224;6.878;2024-03-17T04:23:28;4.15;;;1.73;;
84082;SDS011;74174;52.224;6.878;2024-03-17T04:25:57;8.40;;;2.40;;
84082;SDS011;74174;52.224;6.878;2024-03-17T04:28:23;7.00;;;1.73;;
84082;SDS011;74174;52.224;6.878;2024-03-17T04:30:48;6.22;;;2.03;;
84082;SDS011;74174;52.224;6.878;2024-03-17T04:33:14;9.88;;;2.25;;
84082;SDS011;74174;52.224;6.878;2024-03-17T04:35:41;7.20;;;1.88;;
84082;SDS011;74174;52.224;6.878;2024-03-17T04:38:07;8.20;;;2.15;;
84082;SDS011;74174;52.224;6.878;2024-03-17T04:40:33;8.32;;;1.63;;
84082;SDS011;74174;52.224;6.878;2024-03-17T04:42:59;9.63;;;1.80;;
84082;SDS011;74174;52.224;6.878;2024-03-17T04:45:24;7.75;;;1.60;;
84082;SDS011;74174;52.224;6.878;2024-03-17T04:47:51;7.50;;;1.73;;
84082;SDS011;74174;52.224;6.878;2024-03-17T04:50:16;5.82;;;2.67;;
84082;SDS011;74174;52.224;6.878;2024-03-17T04:52:42;7.20;;;1.73;;
84082;SDS011;74174;52.224;6.878;2024-03-17T04:55:07;7.50;;;2.13;;
84082;SDS011;74174;52.224;6.878;2024-03-17T04:57:33;7.80;;;1.90;;
84082;SDS011;74174;52.224;6.878;2024-03-17T04:59:58;4.60;;;1.85;;
84082;SDS011;74174;52.224;6.878;2024-03-17T05:02:24;6.70;;;1.63;;
84082;SDS011;74174;52.224;6.878;2024-03-17T05:04:50;6.10;;;1.60;;
84082;SDS011;74174;52.224;6.878;2024-03-17T05:07:15;5.47;;;1.95;;
84082;SDS011;74174;52.224;6.878;2024-03-17T05:09:42;8.05;;;2.15;;
84082;SDS011;74174;52.224;6.878;2024-03-17T05:12:09;13.93;;;2.45;;
84082;SDS011;74174;52.224;6.878;2024-03-17T05:14:34;7.50;;;2.03;;
84082;SDS011;74174;52.224;6.878;2024-03-17T05:17:00;8.73;;;2.17;;
84082;SDS011;74174;52.224;6.878;2024-03-17T05:19:25;7.70;;;2.05;;
84082;SDS011;74174;52.224;6.878;2024-03-17T05:21:51;9.65;;;2.17;;
84082;SDS011;74174;52.224;6.878;2024-03-17T05:24:16;5.60;;;2.28;;
84082;SDS011;74174;52.224;6.878;2024-03-17T05:26:42;6.13;;;2.03;;
84082;SDS011;74174;52.224;6.878;2024-03-17T05:29:08;8.73;;;2.08;;
84082;SDS011;74174;52.224;6.878;2024-03-17T05:31:34;7.00;;;2.13;;
84082;SDS011;74174;52.224;6.878;2024-03-17T05:33:59;7.05;;;2.63;;
84082;SDS011;74174;52.224;6.878;2024-03-17T05:36:25;8.18;;;2.45;;
84082;SDS011;74174;52.224;6.878;2024-03-17T05:38:50;11.00;;;2.70;;
84082;SDS011;74174;52.224;6.878;2024-03-17T05:41:16;11.38;;;3.05;;
84082;SDS011;74174;52.224;6.878;2024-03-17T05:43:42;8.57;;;3.10;;
84082;SDS011;74174;52.224;6.878;2024-03-17T05:46:08;10.43;;;3.03;;
84082;SDS011;74174;52.224;6.878;2024-03-17T05:48:39;16.38;;;3.83;;
84082;SDS011;74174;52.224;6.878;2024-03-17T05:51:06;9.25;;;4.10;;
84082;SDS011;74174;52.224;6.878;2024-03-17T05:53:32;12.43;;;4.13;;
84082;SDS011;74174;52.224;6.878;2024-03-17T05:55:59;16.45;;;5.40;;
84082;SDS011;74174;52.224;6.878;2024-03-17T05:58:25;11.45;;;4.72;;
84082;SDS011;74174;52.224;6.878;2024-03-17T06:00:50;13.43;;;4.15;;
84082;SDS011;74174;52.224;6.878;2024-03-17T06:03:16;14.80;;;4.05;;
84082;SDS011;74174;52.224;6.878;2024-03-17T06:05:42;13.02;;;4.00;;
84082;SDS011;74174;52.224;6.878;2024-03-17T06:08:09;9.85;;;4.15;;
84082;SDS011;74174;52.224;6.878;2024-03-17T06:10:36;10.73;;;4.53;;
84082;SDS011;74174;52.224;6.878;2024-03-17T06:13:03;13.13;;;4.80;;
84082;SDS011;74174;52.224;6.878;2024-03-17T06:15:29;12.55;;;4.35;;
84082;SDS011;74174;52.224;6.878;2024-03-17T06:17:55;12.52;;;4.88;;
84082;SDS011;74174;52.224;6.878;2024-03-17T06:20:21;11.65;;;4.03;;
84082;SDS011;74174;52.224;6.878;2024-03-17T06:22:48;10.30;;;3.85;;
84082;SDS011;74174;52.224;6.878;2024-03-17T06:25:14;11.70;;;4.38;;
84082;SDS011;74174;52.224;6.878;2024-03-17T06:27:40;12.02;;;4.50;;
84082;SDS011;74174;52.224;6.878;2024-03-17T06:30:05;11.27;;;4.70;;
84082;SDS011;74174;52.224;6.878;2024-03-17T06:32:32;10.98;;;4.30;;
84082;SDS011;74174;52.224;6.878;2024-03-17T06:35:03;13.77;;;4.35;;
84082;SDS011;74174;52.224;6.878;2024-03-17T06:37:29;11.52;;;4.32;;
84082;SDS011;74174;52.224;6.878;2024-03-17T06:39:54;12.95;;;4.90;;
84082;SDS011;74174;52.224;6.878;2024-03-17T06:42:20;15.15;;;4.72;;
84082;SDS011;74174;52.224;6.878;2024-03-17T06:44:45;11.70;;;4.45;;
84082;SDS011;74174;52.224;6.878;2024-03-17T06:47:11;10.98;;;3.60;;
84082;SDS011;74174;52.224;6.878;2024-03-17T06:49:36;12.02;;;4.80;;
84082;SDS011;74174;52.224;6.878;2024-03-17T06:52:02;9.65;;;3.83;;
84082;SDS011;74174;52.224;6.878;2024-03-17T06:54:27;10.73;;;4.82;;
84082;SDS011;74174;52.224;6.878;2024-03-17T06:56:53;11.52;;;4.47;;
84082;SDS011;74174;52.224;6.878;2024-03-17T06:59:18;13.32;;;4.70;;
84082;SDS011;74174;52.224;6.878;2024-03-17T07:01:45;10.82;;;4.85;;
84082;SDS011;74174;52.224;6.878;2024-03-17T07:04:12;14.20;;;4.45;;
84082;SDS011;74174;52.224;6.878;2024-03-17T07:06:37;7.70;;;3.55;;
84082;SDS011;74174;52.224;6.878;2024-03-17T07:09:03;10.05;;;4.07;;
84082;SDS011;74174;52.224;6.878;2024-03-17T07:11:28;10.35;;;4.28;;
84082;SDS011;74174;52.224;6.878;2024-03-17T07:13:54;11.65;;;4.15;;
84082;SDS011;74174;52.224;6.878;2024-03-17T07:16:19;13.55;;;4.22;;
84082;SDS011;74174;52.224;6.878;2024-03-17T07:18:46;12.18;;;4.88;;
84082;SDS011;74174;52.224;6.878;2024-03-17T07:21:12;9.77;;;4.70;;
84082;SDS011;74174;52.224;6.878;2024-03-17T07:23:38;11.75;;;4.53;;
84082;SDS011;74174;52.224;6.878;2024-03-17T07:26:04;9.98;;;5.03;;
84082;SDS011;74174;52.224;6.878;2024-03-17T07:28:29;11.07;;;4.45;;
84082;SDS011;74174;52.224;6.878;2024-03-17T07:30:56;12.55;;;4.95;;
84082;SDS011;74174;52.224;6.878;2024-03-17T07:33:23;12.52;;;5.10;;
84082;SDS011;74174;52.224;6.878;2024-03-17T07:35:50;11.77;;;5.38;;
84082;SDS011;74174;52.224;6.878;2024-03-17T07:38:16;12.43;;;4.72;;
84082;SDS011;74174;52.224;6.878;2024-03-17T07:40:42;14.50;;;4.80;;
84082;SDS011;74174;52.224;6.878;2024-03-17T07:43:08;17.25;;;5.00;;
84082;SDS011;74174;52.224;6.878;2024-03-17T07:45:33;10.93;;;4.97;;
84082;SDS011;74174;52.224;6.878;2024-03-17T07:47:59;12.27;;;5.60;;
84082;SDS011;74174;52.224;6.878;2024-03-17T07:50:26;14.20;;;4.88;;
84082;SDS011;74174;52.224;6.878;2024-03-17T07:52:52;11.13;;;4.82;;
84082;SDS011;74174;52.224;6.878;2024-03-17T07:55:17;13.63;;;5.40;;
84082;SDS011;74174;52.224;6.878;2024-03-17T07:57:43;12.70;;;5.15;;
84082;SDS011;74174;52.224;6.878;2024-03-17T08:00:08;11.93;;;4.90;;
84082;SDS011;74174;52.224;6.878;2024-03-17T08:02:41;14.93;;;5.20;;
84082;SDS011;74174;52.224;6.878;2024-03-17T08:05:10;9.18;;;4.65;;
84082;SDS011;74174;52.224;6.878;2024-03-17T08:07:35;10.70;;;4.78;;
84082;SDS011;74174;52.224;6.878;2024-03-17T08:10:00;10.70;;;5.03;;
84082;SDS011;74174;52.224;6.878;2024-03-17T08:12:28;11.27;;;5.05;;
84082;SDS011;74174;52.224;6.878;2024-03-17T08:14:54;15.10;;;6.57;;
84082;SDS011;74174;52.224;6.878;2024-03-17T08:17:19;10.77;;;4.88;;
84082;SDS011;74174;52.224;6.878;2024-03-17T08:19:45;10.85;;;5.10;;
84082;SDS011;74174;52.224;6.878;2024-03-17T08:22:10;11.38;;;5.07;;
84082;SDS011;74174;52.224;6.878;2024-03-17T08:24:36;9.38;;;4.72;;
84082;SDS011;74174;52.224;6.878;2024-03-17T08:27:01;10.00;;;4.88;;
84082;SDS011;74174;52.224;6.878;2024-03-17T08:29:26;9.27;;;4.60;;
84082;SDS011;74174;52.224;6.878;2024-03-17T08:31:52;15.30;;;5.28;;
84082;SDS011;74174;52.224;6.878;2024-03-17T08:34:17;11.57;;;4.88;;
84082;SDS011;74174;52.224;6.878;2024-03-17T08:36:43;12.25;;;5.65;;
84082;SDS011;74174;52.224;6.878;2024-03-17T08:39:08;9.63;;;4.20;;
84082;SDS011;74174;52.224;6.878;2024-03-17T08:41:36;12.40;;;5.30;;
84082;SDS011;74174;52.224;6.878;2024-03-17T08:44:01;10.13;;;5.13;;
84082;SDS011;74174;52.224;6.878;2024-03-17T08:46:27;12.27;;;4.97;;
84082;SDS011;74174;52.224;6.878;2024-03-17T08:48:52;12.05;;;5.10;;
84082;SDS011;74174;52.224;6.878;2024-03-17T08:51:18;11.70;;;5.18;;
84082;SDS011;74174;52.224;6.878;2024-03-17T08:53:43;8.88;;;4.20;;
84082;SDS011;74174;52.224;6.878;2024-03-17T08:56:09;10.70;;;4.53;;
84082;SDS011;74174;52.224;6.878;2024-03-17T08:58:35;11.05;;;4.57;;
84082;SDS011;74174;52.224;6.878;2024-03-17T09:01:04;8.15;;;4.38;;
84082;SDS011;74174;52.224;6.878;2024-03-17T09:03:30;10.40;;;4.50;;
84082;SDS011;74174;52.224;6.878;2024-03-17T09:05:56;9.07;;;3.95;;
84082;SDS011;74174;52.224;6.878;2024-03-17T09:08:22;9.55;;;4.30;;
84082;SDS011;74174;52.224;6.878;2024-03-17T09:10:49;9.80;;;4.40;;
84082;SDS011;74174;52.224;6.878;2024-03-17T09:13:18;9.25;;;4.28;;
84082;SDS011;74174;52.224;6.878;2024-03-17T09:15:54;8.38;;;3.88;;
84082;SDS011;74174;52.224;6.878;2024-03-17T09:18:27;9.27;;;4.13;;
84082;SDS011;74174;52.224;6.878;2024-03-17T09:21:11;9.52;;;4.05;;
84082;SDS011;74174;52.224;6.878;2024-03-17T09:23:38;7.35;;;3.67;;
84082;SDS011;74174;52.224;6.878;2024-03-17T09:26:05;9.27;;;3.72;;
84082;SDS011;74174;52.224;6.878;2024-03-17T09:28:33;7.65;;;4.05;;
84082;SDS011;74174;52.224;6.878;2024-03-17T09:30:59;8.30;;;3.35;;
84082;SDS011;74174;52.224;6.878;2024-03-17T09:33:26;7.90;;;4.03;;
84082;SDS011;74174;52.224;6.878;2024-03-17T09:35:56;7.75;;;3.45;;
84082;SDS011;74174;52.224;6.878;2024-03-17T09:38:23;8.68;;;3.60;;
84082;SDS011;74174;52.224;6.878;2024-03-17T09:40:48;7.63;;;3.97;;
84082;SDS011;74174;52.224;6.878;2024-03-17T09:43:17;10.60;;;4.00;;
84082;SDS011;74174;52.224;6.878;2024-03-17T09:45:43;8.73;;;3.25;;
84082;SDS011;74174;52.224;6.878;2024-03-17T09:48:10;8.23;;;4.57;;
84082;SDS011;74174;52.224;6.878;2024-03-17T09:50:40;8.50;;;3.88;;
84082;SDS011;74174;52.224;6.878;2024-03-17T09:53:06;7.20;;;3.45;;
84082;SDS011;74174;52.224;6.878;2024-03-17T09:55:38;8.23;;;3.67;;
84082;SDS011;74174;52.224;6.878;2024-03-17T09:58:03;5.68;;;2.85;;
84082;SDS011;74174;52.224;6.878;2024-03-17T10:00:29;7.35;;;3.25;;
84082;SDS011;74174;52.224;6.878;2024-03-17T10:02:54;7.80;;;3.97;;
84082;SDS011;74174;52.224;6.878;2024-03-17T10:05:20;8.15;;;3.28;;
84082;SDS011;74174;52.224;6.878;2024-03-17T10:07:47;9.57;;;3.75;;
84082;SDS011;74174;52.224;6.878;2024-03-17T10:10:18;6.63;;;3.08;;
84082;SDS011;74174;52.224;6.878;2024-03-17T10:12:49;7.25;;;3.22;;
84082;SDS011;74174;52.224;6.878;2024-03-17T10:17:43;7.68;;;2.97;;
84082;SDS011;74174;52.224;6.878;2024-03-17T10:20:12;8.23;;;3.25;;
84082;SDS011;74174;52.224;6.878;2024-03-17T10:23:03;6.90;;;2.85;;
84082;SDS011;74174;52.224;6.878;2024-03-17T10:25:33;5.65;;;2.55;;
84082;SDS011;74174;52.224;6.878;2024-03-17T10:28:00;5.82;;;2.95;;
84082;SDS011;74174;52.224;6.878;2024-03-17T10:30:27;4.65;;;2.55;;
84082;SDS011;74174;52.224;6.878;2024-03-17T10:32:58;7.60;;;2.58;;
84082;SDS011;74174;52.224;6.878;2024-03-17T10:35:35;7.07;;;2.65;;
84082;SDS011;74174;52.224;6.878;2024-03-17T10:38:05;6.85;;;2.42;;
84082;SDS011;74174;52.224;6.878;2024-03-17T10:40:32;7.25;;;3.20;;
84082;SDS011;74174;52.224;6.878;2024-03-17T10:42:59;5.20;;;2.47;;
84082;SDS011;74174;52.224;6.878;2024-03-17T10:45:26;5.85;;;2.30;;
84082;SDS011;74174;52.224;6.878;2024-03-17T10:47:55;4.70;;;3.00;;
84082;SDS011;74174;52.224;6.878;2024-03-17T10:50:27;4.95;;;2.05;;
84082;SDS011;74174;52.224;6.878;2024-03-17T10:53:01;8.27;;;2.88;;
84082;SDS011;74174;52.224;6.878;2024-03-17T10:55:28;6.25;;;2.58;;
84082;SDS011;74174;52.224;6.878;2024-03-17T10:57:58;6.80;;;2.95;;
84082;SDS011;74174;52.224;6.878;2024-03-17T11:00:29;6.38;;;3.08;;
84082;SDS011;74174;52.224;6.878;2024-03-17T11:02:55;6.07;;;3.20;;
84082;SDS011;74174;52.224;6.878;2024-03-17T11:05:26;6.75;;;2.47;;
84082;SDS011;74174;52.224;6.878;2024-03-17T11:08:00;4.97;;;1.88;;
84082;SDS011;74174;52.224;6.878;2024-03-17T11:10:27;5.35;;;1.90;;
84082;SDS011;74174;52.224;6.878;2024-03-17T11:13:00;5.68;;;2.65;;
84082;SDS011;74174;52.224;6.878;2024-03-17T11:18:40;6.38;;;2.42;;
84082;SDS011;74174;52.224;6.878;2024-03-17T11:20:59;5.90;;;2.30;;
84082;SDS011;74174;52.224;6.878;2024-03-17T11:23:40;5.50;;;2.85;;
84082;SDS011;74174;52.224;6.878;2024-03-17T11:26:07;5.78;;;3.22;;
84082;SDS011;74174;52.224;6.878;2024-03-17T11:31:38;5.30;;;2.58;;
84082;SDS011;74174;52.224;6.878;2024-03-17T11:36:53;5.90;;;2.53;;
84082;SDS011;74174;52.224;6.878;2024-03-17T11:40:22;8.40;;;2.45;;
84082;SDS011;74174;52.224;6.878;2024-03-17T11:42:14;6.72;;;2.58;;
84082;SDS011;74174;52.224;6.878;2024-03-17T11:44:57;6.07;;;2.60;;
84082;SDS011;74174;52.224;6.878;2024-03-17T11:47:32;6.07;;;2.45;;
84082;SDS011;74174;52.224;6.878;2024-03-17T11:50:02;4.93;;;2.28;;
84082;SDS011;74174;52.224;6.878;2024-03-17T11:52:29;4.95;;;1.92;;
84082;SDS011;74174;52.224;6.878;2024-03-17T11:54:55;7.10;;;2.63;;
84082;SDS011;74174;52.224;6.878;2024-03-17T11:57:21;5.00;;;1.95;;
84082;SDS011;74174;52.224;6.878;2024-03-17T11:59:48;6.97;;;2.67;;
84082;SDS011;74174;52.224;6.878;2024-03-17T12:02:17;7.10;;;3.15;;
84082;SDS011;74174;52.224;6.878;2024-03-17T12:04:47;6.40;;;2.75;;
84082;SDS011;74174;52.224;6.878;2024-03-17T12:07:17;5.50;;;2.50;;
84082;SDS011;74174;52.224;6.878;2024-03-17T12:09:44;5.30;;;2.97;;
84082;SDS011;74174;52.224;6.878;2024-03-17T12:12:23;8.27;;;2.72;;
84082;SDS011;74174;52.224;6.878;2024-03-17T12:14:51;6.85;;;2.90;;
84082;SDS011;74174;52.224;6.878;2024-03-17T12:17:20;5.50;;;2.65;;
84082;SDS011;74174;52.224;6.878;2024-03-17T12:19:47;7.78;;;2.60;;
84082;SDS011;74174;52.224;6.878;2024-03-17T12:22:17;4.90;;;2.47;;
84082;SDS011;74174;52.224;6.878;2024-03-17T12:24:46;6.45;;;2.38;;
84082;SDS011;74174;52.224;6.878;2024-03-17T12:27:16;6.70;;;3.17;;
84082;SDS011;74174;52.224;6.878;2024-03-17T12:29:46;6.80;;;2.72;;
84082;SDS011;74174;52.224;6.878;2024-03-17T12:32:14;7.95;;;2.50;;
84082;SDS011;74174;52.224;6.878;2024-03-17T12:34:43;6.00;;;3.03;;
84082;SDS011;74174;52.224;6.878;2024-03-17T12:37:15;8.93;;;3.70;;
84082;SDS011;74174;52.224;6.878;2024-03-17T12:39:43;7.22;;;3.65;;
84082;SDS011;74174;52.224;6.878;2024-03-17T12:47:31;6.82;;;2.58;;
84082;SDS011;74174;52.224;6.878;2024-03-17T12:49:58;5.85;;;2.72;;
84082;SDS011;74174;52.224;6.878;2024-03-17T12:55:07;8.63;;;3.40;;
84082;SDS011;74174;52.224;6.878;2024-03-17T12:57:52;6.95;;;3.60;;
84082;SDS011;74174;52.224;6.878;2024-03-17T13:01:02;6.47;;;3.25;;
84082;SDS011;74174;52.224;6.878;2024-03-17T13:03:33;7.07;;;3.38;;
84082;SDS011;74174;52.224;6.878;2024-03-17T13:06:00;5.93;;;3.03;;
84082;SDS011;74174;52.224;6.878;2024-03-17T13:08:27;6.85;;;3.75;;
84082;SDS011;74174;52.224;6.878;2024-03-17T13:10:53;7.35;;;2.75;;
84082;SDS011;74174;52.224;6.878;2024-03-17T13:13:19;8.82;;;3.53;;
84082;SDS011;74174;52.224;6.878;2024-03-17T13:15:45;8.57;;;3.20;;
84082;SDS011;74174;52.224;6.878;2024-03-17T13:18:21;8.73;;;3.80;;
84082;SDS011;74174;52.224;6.878;2024-03-17T13:20:50;6.88;;;3.85;;
84082;SDS011;74174;52.224;6.878;2024-03-17T13:23:18;7.50;;;3.53;;
84082;SDS011;74174;52.224;6.878;2024-03-17T13:25:43;7.90;;;3.47;;
84082;SDS011;74174;52.224;6.878;2024-03-17T13:28:10;7.72;;;3.88;;
84082;SDS011;74174;52.224;6.878;2024-03-17T13:30:36;9.38;;;3.78;;
84082;SDS011;74174;52.224;6.878;2024-03-17T13:33:03;9.00;;;3.53;;
84082;SDS011;74174;52.224;6.878;2024-03-17T13:35:36;7.75;;;4.03;;
84082;SDS011;74174;52.224;6.878;2024-03-17T13:38:04;7.22;;;3.35;;
84082;SDS011;74174;52.224;6.878;2024-03-17T13:40:32;16.20;;;4.35;;
84082;SDS011;74174;52.224;6.878;2024-03-17T13:42:59;6.75;;;3.72;;
84082;SDS011;74174;52.224;6.878;2024-03-17T13:45:27;8.10;;;3.78;;
84082;SDS011;74174;52.224;6.878;2024-03-17T13:47:59;9.05;;;3.95;;
84082;SDS011;74174;52.224;6.878;2024-03-17T13:50:26;6.55;;;3.42;;
84082;SDS011;74174;52.224;6.878;2024-03-17T13:52:52;7.80;;;3.50;;
84082;SDS011;74174;52.224;6.878;2024-03-17T13:55:21;8.68;;;4.43;;
84082;SDS011;74174;52.224;6.878;2024-03-17T13:57:51;8.98;;;3.85;;
84082;SDS011;74174;52.224;6.878;2024-03-17T14:00:21;7.53;;;3.45;;
84082;SDS011;74174;52.224;6.878;2024-03-17T14:02:48;9.50;;;4.07;;
84082;SDS011;74174;52.224;6.878;2024-03-17T14:05:16;7.95;;;3.53;;
84082;SDS011;74174;52.224;6.878;2024-03-17T14:07:43;8.68;;;3.95;;
84082;SDS011;74174;52.224;6.878;2024-03-17T14:10:09;9.65;;;3.65;;
84082;SDS011;74174;52.224;6.878;2024-03-17T14:12:36;6.57;;;3.63;;
84082;SDS011;74174;52.224;6.878;2024-03-17T14:15:06;8.98;;;4.05;;
84082;SDS011;74174;52.224;6.878;2024-03-17T14:17:35;8.18;;;3.63;;
84082;SDS011;74174;52.224;6.878;2024-03-17T14:20:08;9.05;;;3.83;;
84082;SDS011;74174;52.224;6.878;2024-03-17T14:22:37;8.55;;;4.93;;
84082;SDS011;74174;52.224;6.878;2024-03-17T14:25:04;8.00;;;3.67;;
84082;SDS011;74174;52.224;6.878;2024-03-17T14:27:32;8.70;;;4.10;;
84082;SDS011;74174;52.224;6.878;2024-03-17T14:29:58;10.75;;;4.32;;
84082;SDS011;74174;52.224;6.878;2024-03-17T14:32:24;9.73;;;4.57;;
84082;SDS011;74174;52.224;6.878;2024-03-17T14:34:49;7.57;;;4.10;;
84082;SDS011;74174;52.224;6.878;2024-03-17T14:37:15;7.85;;;4.13;;
84082;SDS011;74174;52.224;6.878;2024-03-17T14:39:41;9.25;;;4.07;;
84082;SDS011;74174;52.224;6.878;2024-03-17T14:42:09;7.45;;;3.80;;
84082;SDS011;74174;52.224;6.878;2024-03-17T14:44:36;7.55;;;3.30;;
84082;SDS011;74174;52.224;6.878;2024-03-17T14:47:02;7.35;;;3.58;;
84082;SDS011;74174;52.224;6.878;2024-03-17T14:49:29;8.20;;;3.50;;
84082;SDS011;74174;52.224;6.878;2024-03-17T14:51:56;8.32;;;3.97;;
84082;SDS011;74174;52.224;6.878;2024-03-17T14:54:22;9.18;;;3.63;;
84082;SDS011;74174;52.224;6.878;2024-03-17T14:56:47;7.88;;;3.50;;
84082;SDS011;74174;52.224;6.878;2024-03-17T14:59:13;10.52;;;4.03;;
84082;SDS011;74174;52.224;6.878;2024-03-17T15:01:42;8.32;;;3.67;;
84082;SDS011;74174;52.224;6.878;2024-03-17T15:04:07;8.52;;;3.60;;